Weather at Kocatepe Heliport

Public forecast

Using degrees Celsius for public forecast. Weather courtesy of forecast.io.

Closest aviation weather report (METAR) to Kocatepe Heliport

Report is more than 2 hours old.

Closest report is Afyon Air Base, 7.3 nm (13.5 km) ESE. Retrieved 2022/01/21 13:50 UTC (6 hours ago):

LTAH 211350Z 17006KT 9999 BKN035 BKN100 05/M01 Q1017 RMK RWY13 22007KT 190V250

Closest aviation forecast (TAF) to Kocatepe Heliport

Forecast is more than 12 hours old.

Closest forecast is Afyon Air Base, 7.3 nm (13.5 km) ESE. Retrieved 2012/05/11 09:09 UTC (10 years ago):

TAF TAF LTAH 110740Z 1109/1121 VRB02KT 6000 -SHRA BKN030 BKN090 TEMPO 1112/1116 33015KT 4000 -TSRA FEW025CB BKN030